Dauntless Aviation
Airports North America Mexico
MX84

Purépecha Airport

Pátzcuaro, MEXICO

Airport Info
Suggest Updated Information for this Airport

Location

Latitude / Longitude: 19°32'44"N / 101°34'31"W
  19°32.742'N / 101°34.518'W
  19.5457 / -101.5753
Satellite photo at:
Airport distance calculator
From:
Weather Reports

METAR

MMMM
36.5nm NE
MMMM 110250Z 00000KT 7SM SCT230 11/09 A3032 RMK SLP180 52001 904 8/008 HZY

TAF

MMPN
26.8nm SW
TAF MMPN 101637Z 1018/1118 18005KT P6SM SCT030 BKN260 FM102100 21010KT P6SM SCT030CB BKN260 FM110200 00000KT P6SM SCT080 BKN260 FM111000 00000KT 5SM HZ SCT015 BKN080 FM111600 18005KT 6SM HZ SCT030 SCT080
MMMM
36.5nm NE
TAF MMMM 102302Z 1100/1206 34005KT P6SM BKN230 FM110600 02005KT 6SM HZ SCT020 SCT220 TEMPO 1110/1114 3SM BR BKN010 FM111700 22010KT P6SM SCT025 SCT230 FM120300 32005KT 5SM HZ SCT025 BKN230
Safelog

 

Dauntless Aviation

© 2007-2018 Dauntless Aviation, all rights reserved
Information provided via PilotNav comes from a variety of official and unofficial data sources. As errors are possible, do not use PilotNav for primary flight planning purposes. Verify any information that you receive via PilotNav with current and canonical charts and other official documents. The material in this database is subject to database copyrights held by Dauntless Aviation and may not be copied without the express permission of Dauntless Aviation - licenses for use of part of all of this data are available for purchase; enquire via the Dauntless Aviation helpdesk. A number of mechanisms and markers exist in the database to protect against and identify infringement / copyright. Automated queries against this website are stictly prohibited, and all activity is logged and analyzed.